sensor_id;sensor_type;location;lat;lon;timestamp;temperature;humidity
72576;DHT22;60613;48.658;2.328;2023-04-06T06:02:36;20.80;30.10
72576;DHT22;60613;48.658;2.328;2023-04-06T06:05:02;20.80;31.10
72576;DHT22;60613;48.658;2.328;2023-04-06T06:07:27;20.80;31.00
72576;DHT22;60613;48.658;2.328;2023-04-06T06:09:56;20.80;30.90
72576;DHT22;60613;48.658;2.328;2023-04-06T06:12:22;21.00;30.90
72576;DHT22;60613;48.658;2.328;2023-04-06T06:14:48;21.00;30.70
72576;DHT22;60613;48.658;2.328;2023-04-06T06:17:14;21.00;30.60
72576;DHT22;60613;48.658;2.328;2023-04-06T06:19:40;21.00;30.70
72576;DHT22;60613;48.658;2.328;2023-04-06T06:22:06;21.00;30.60
72576;DHT22;60613;48.658;2.328;2023-04-06T06:24:31;21.10;30.70
72576;DHT22;60613;48.658;2.328;2023-04-06T06:26:57;21.00;30.60
72576;DHT22;60613;48.658;2.328;2023-04-06T06:29:23;21.00;31.80
72576;DHT22;60613;48.658;2.328;2023-04-06T06:31:49;21.00;30.60
72576;DHT22;60613;48.658;2.328;2023-04-06T06:34:15;21.10;30.80
72576;DHT22;60613;48.658;2.328;2023-04-06T06:36:40;21.00;31.40
72576;DHT22;60613;48.658;2.328;2023-04-06T06:39:06;20.60;32.90
72576;DHT22;60613;48.658;2.328;2023-04-06T06:41:32;20.30;34.10
72576;DHT22;60613;48.658;2.328;2023-04-06T06:43:57;20.00;35.10
72576;DHT22;60613;48.658;2.328;2023-04-06T06:46:23;19.90;35.40
72576;DHT22;60613;48.658;2.328;2023-04-06T06:48:48;19.80;36.30
72576;DHT22;60613;48.658;2.328;2023-04-06T06:51:14;19.70;37.20
72576;DHT22;60613;48.658;2.328;2023-04-06T06:53:40;19.60;38.50
72576;DHT22;60613;48.658;2.328;2023-04-06T06:56:06;19.50;37.80
72576;DHT22;60613;48.658;2.328;2023-04-06T06:58:31;19.50;38.00
72576;DHT22;60613;48.658;2.328;2023-04-06T07:01:00;19.40;38.40
72576;DHT22;60613;48.658;2.328;2023-04-06T07:03:26;19.40;37.50
72576;DHT22;60613;48.658;2.328;2023-04-06T07:05:52;19.70;36.40
72576;DHT22;60613;48.658;2.328;2023-04-06T07:08:21;19.90;35.40
72576;DHT22;60613;48.658;2.328;2023-04-06T07:10:47;20.20;34.60
72576;DHT22;60613;48.658;2.328;2023-04-06T07:13:14;20.30;34.20
72576;DHT22;60613;48.658;2.328;2023-04-06T07:15:47;20.50;33.80
72576;DHT22;60613;48.658;2.328;2023-04-06T07:18:13;20.70;33.50
72576;DHT22;60613;48.658;2.328;2023-04-06T07:20:38;20.80;33.20
72576;DHT22;60613;48.658;2.328;2023-04-06T07:23:04;20.80;33.10
72576;DHT22;60613;48.658;2.328;2023-04-06T07:25:30;21.00;33.10
72576;DHT22;60613;48.658;2.328;2023-04-06T07:27:55;21.10;33.30
72576;DHT22;60613;48.658;2.328;2023-04-06T07:30:21;21.10;33.70
72576;DHT22;60613;48.658;2.328;2023-04-06T07:32:48;21.10;33.40
72576;DHT22;60613;48.658;2.328;2023-04-06T07:35:14;21.00;33.50
72576;DHT22;60613;48.658;2.328;2023-04-06T07:37:40;20.90;33.40
72576;DHT22;60613;48.658;2.328;2023-04-06T07:40:06;20.90;33.30
72576;DHT22;60613;48.658;2.328;2023-04-06T07:42:32;20.90;33.50
72576;DHT22;60613;48.658;2.328;2023-04-06T07:44:58;20.90;33.30
72576;DHT22;60613;48.658;2.328;2023-04-06T07:47:24;21.00;33.20
72576;DHT22;60613;48.658;2.328;2023-04-06T07:49:49;21.10;33.00
72576;DHT22;60613;48.658;2.328;2023-04-06T07:52:15;21.20;33.00
72576;DHT22;60613;48.658;2.328;2023-04-06T07:54:41;21.20;32.90
72576;DHT22;60613;48.658;2.328;2023-04-06T07:57:07;21.30;32.70
72576;DHT22;60613;48.658;2.328;2023-04-06T07:59:33;21.30;33.00
72576;DHT22;60613;48.658;2.328;2023-04-06T08:01:58;21.30;32.70
72576;DHT22;60613;48.658;2.328;2023-04-06T08:04:24;21.40;32.50
72576;DHT22;60613;48.658;2.328;2023-04-06T08:06:50;21.40;32.30
72576;DHT22;60613;48.658;2.328;2023-04-06T08:09:15;21.50;32.50
72576;DHT22;60613;48.658;2.328;2023-04-06T08:11:41;21.50;32.60
72576;DHT22;60613;48.658;2.328;2023-04-06T08:14:07;21.50;32.60
72576;DHT22;60613;48.658;2.328;2023-04-06T08:16:32;21.60;33.30
72576;DHT22;60613;48.658;2.328;2023-04-06T08:18:58;21.70;33.20
72576;DHT22;60613;48.658;2.328;2023-04-06T08:21:24;21.80;32.80
72576;DHT22;60613;48.658;2.328;2023-04-06T08:23:49;21.80;32.60
72576;DHT22;60613;48.658;2.328;2023-04-06T08:26:15;21.90;32.70
72576;DHT22;60613;48.658;2.328;2023-04-06T08:28:41;21.90;32.50
72576;DHT22;60613;48.658;2.328;2023-04-06T08:31:07;21.80;32.70
72576;DHT22;60613;48.658;2.328;2023-04-06T08:33:35;21.90;32.80
72576;DHT22;60613;48.658;2.328;2023-04-06T08:36:14;21.80;33.00
72576;DHT22;60613;48.658;2.328;2023-04-06T08:38:41;21.70;34.90
72576;DHT22;60613;48.658;2.328;2023-04-06T08:41:09;21.70;34.10
72576;DHT22;60613;48.658;2.328;2023-04-06T08:46:08;21.80;34.20
72576;DHT22;60613;48.658;2.328;2023-04-06T08:48:34;21.80;34.10
72576;DHT22;60613;48.658;2.328;2023-04-06T08:51:01;21.80;34.10
72576;DHT22;60613;48.658;2.328;2023-04-06T08:53:27;21.70;34.30
72576;DHT22;60613;48.658;2.328;2023-04-06T08:55:55;21.70;34.10
72576;DHT22;60613;48.658;2.328;2023-04-06T08:58:22;21.80;34.00
72576;DHT22;60613;48.658;2.328;2023-04-06T09:00:49;21.90;33.70
72576;DHT22;60613;48.658;2.328;2023-04-06T09:03:16;21.80;34.00
72576;DHT22;60613;48.658;2.328;2023-04-06T09:05:43;21.70;33.50
72576;DHT22;60613;48.658;2.328;2023-04-06T09:08:09;21.80;33.40
72576;DHT22;60613;48.658;2.328;2023-04-06T09:10:35;21.70;33.40
72576;DHT22;60613;48.658;2.328;2023-04-06T09:13:05;21.80;33.30
72576;DHT22;60613;48.658;2.328;2023-04-06T09:15:31;21.80;33.80
72576;DHT22;60613;48.658;2.328;2023-04-06T09:17:57;21.80;33.70
72576;DHT22;60613;48.658;2.328;2023-04-06T09:20:26;21.80;34.40
72576;DHT22;60613;48.658;2.328;2023-04-06T09:22:54;21.80;34.00
72576;DHT22;60613;48.658;2.328;2023-04-06T09:25:22;21.80;34.80
72576;DHT22;60613;48.658;2.328;2023-04-06T09:28:03;21.90;35.80
72576;DHT22;60613;48.658;2.328;2023-04-06T09:30:30;22.00;35.90
72576;DHT22;60613;48.658;2.328;2023-04-06T09:32:57;22.00;35.10
72576;DHT22;60613;48.658;2.328;2023-04-06T09:35:23;22.10;34.60
72576;DHT22;60613;48.658;2.328;2023-04-06T09:37:52;22.20;34.50
72576;DHT22;60613;48.658;2.328;2023-04-06T09:40:18;22.20;35.20
72576;DHT22;60613;48.658;2.328;2023-04-06T09:42:48;22.20;34.30
72576;DHT22;60613;48.658;2.328;2023-04-06T09:45:17;22.30;34.70
72576;DHT22;60613;48.658;2.328;2023-04-06T09:47:44;22.40;34.30
72576;DHT22;60613;48.658;2.328;2023-04-06T09:50:14;22.40;33.90
72576;DHT22;60613;48.658;2.328;2023-04-06T09:52:47;22.50;33.90
72576;DHT22;60613;48.658;2.328;2023-04-06T09:55:42;22.40;33.80
72576;DHT22;60613;48.658;2.328;2023-04-06T09:58:13;22.40;34.20
72576;DHT22;60613;48.658;2.328;2023-04-06T10:01:08;22.40;34.10
72576;DHT22;60613;48.658;2.328;2023-04-06T10:06:27;22.50;34.00
72576;DHT22;60613;48.658;2.328;2023-04-06T10:08:56;22.50;34.00
72576;DHT22;60613;48.658;2.328;2023-04-06T10:11:22;22.50;33.90
72576;DHT22;60613;48.658;2.328;2023-04-06T10:13:48;22.50;33.70
72576;DHT22;60613;48.658;2.328;2023-04-06T10:16:15;22.50;33.70
72576;DHT22;60613;48.658;2.328;2023-04-06T10:18:46;22.60;33.50
72576;DHT22;60613;48.658;2.328;2023-04-06T10:21:16;22.50;33.30
72576;DHT22;60613;48.658;2.328;2023-04-06T10:24:11;22.40;33.90
72576;DHT22;60613;48.658;2.328;2023-04-06T10:26:37;22.40;33.30
72576;DHT22;60613;48.658;2.328;2023-04-06T10:29:04;22.50;33.60
72576;DHT22;60613;48.658;2.328;2023-04-06T10:31:30;22.30;35.00
72576;DHT22;60613;48.658;2.328;2023-04-06T10:34:01;22.10;33.80
72576;DHT22;60613;48.658;2.328;2023-04-06T10:36:28;21.90;34.30
72576;DHT22;60613;48.658;2.328;2023-04-06T10:38:59;21.80;34.50
72576;DHT22;60613;48.658;2.328;2023-04-06T10:41:33;21.60;34.80
72576;DHT22;60613;48.658;2.328;2023-04-06T10:43:59;21.50;35.10
72576;DHT22;60613;48.658;2.328;2023-04-06T10:46:28;21.40;35.20
72576;DHT22;60613;48.658;2.328;2023-04-06T10:48:54;21.40;35.40
72576;DHT22;60613;48.658;2.328;2023-04-06T10:51:25;21.40;35.40
72576;DHT22;60613;48.658;2.328;2023-04-06T10:53:55;21.40;35.40
72576;DHT22;60613;48.658;2.328;2023-04-06T10:56:24;21.30;35.70
72576;DHT22;60613;48.658;2.328;2023-04-06T10:58:54;21.30;35.50
72576;DHT22;60613;48.658;2.328;2023-04-06T11:01:24;21.30;35.40
72576;DHT22;60613;48.658;2.328;2023-04-06T11:03:56;21.40;36.50
72576;DHT22;60613;48.658;2.328;2023-04-06T11:06:25;21.40;35.20
72576;DHT22;60613;48.658;2.328;2023-04-06T11:08:52;21.40;35.10
72576;DHT22;60613;48.658;2.328;2023-04-06T11:11:20;21.50;35.30
72576;DHT22;60613;48.658;2.328;2023-04-06T11:16:17;21.80;34.40
72576;DHT22;60613;48.658;2.328;2023-04-06T11:21:13;22.10;33.80
72576;DHT22;60613;48.658;2.328;2023-04-06T11:23:38;22.20;33.60
72576;DHT22;60613;48.658;2.328;2023-04-06T11:26:04;22.30;33.40
72576;DHT22;60613;48.658;2.328;2023-04-06T11:28:30;22.30;33.30
72576;DHT22;60613;48.658;2.328;2023-04-06T11:30:56;22.30;33.30
72576;DHT22;60613;48.658;2.328;2023-04-06T11:33:22;22.30;33.20
72576;DHT22;60613;48.658;2.328;2023-04-06T11:35:48;22.30;33.20
72576;DHT22;60613;48.658;2.328;2023-04-06T11:38:14;22.30;33.10
72576;DHT22;60613;48.658;2.328;2023-04-06T11:40:40;22.30;33.40
72576;DHT22;60613;48.658;2.328;2023-04-06T11:43:06;22.20;33.90
72576;DHT22;60613;48.658;2.328;2023-04-06T11:45:41;22.00;34.10
72576;DHT22;60613;48.658;2.328;2023-04-06T11:48:18;22.00;34.40
72576;DHT22;60613;48.658;2.328;2023-04-06T11:50:46;22.00;34.40
72576;DHT22;60613;48.658;2.328;2023-04-06T11:53:13;22.00;34.50
72576;DHT22;60613;48.658;2.328;2023-04-06T11:55:38;22.00;34.40
72576;DHT22;60613;48.658;2.328;2023-04-06T11:58:04;21.90;34.40
72576;DHT22;60613;48.658;2.328;2023-04-06T12:00:30;21.90;34.30
72576;DHT22;60613;48.658;2.328;2023-04-06T12:03:00;21.90;34.40
72576;DHT22;60613;48.658;2.328;2023-04-06T12:05:27;22.00;34.20
72576;DHT22;60613;48.658;2.328;2023-04-06T12:07:52;21.90;34.00
72576;DHT22;60613;48.658;2.328;2023-04-06T12:10:18;21.90;33.90
72576;DHT22;60613;48.658;2.328;2023-04-06T12:12:43;22.00;34.00
72576;DHT22;60613;48.658;2.328;2023-04-06T12:15:10;21.90;34.00
72576;DHT22;60613;48.658;2.328;2023-04-06T12:17:36;21.90;34.00
72576;DHT22;60613;48.658;2.328;2023-04-06T12:20:02;21.80;34.00
72576;DHT22;60613;48.658;2.328;2023-04-06T12:22:28;21.80;34.00
72576;DHT22;60613;48.658;2.328;2023-04-06T12:24:53;21.90;34.20
72576;DHT22;60613;48.658;2.328;2023-04-06T12:27:19;21.80;34.30
72576;DHT22;60613;48.658;2.328;2023-04-06T12:29:46;21.80;34.50
72576;DHT22;60613;48.658;2.328;2023-04-06T12:32:12;21.80;34.50
72576;DHT22;60613;48.658;2.328;2023-04-06T12:34:38;21.80;34.50
72576;DHT22;60613;48.658;2.328;2023-04-06T12:37:04;21.90;34.50
72576;DHT22;60613;48.658;2.328;2023-04-06T12:39:29;21.90;34.50
72576;DHT22;60613;48.658;2.328;2023-04-06T12:41:55;21.90;34.50
72576;DHT22;60613;48.658;2.328;2023-04-06T12:44:22;21.90;34.50
72576;DHT22;60613;48.658;2.328;2023-04-06T12:46:48;22.00;34.30
72576;DHT22;60613;48.658;2.328;2023-04-06T12:49:13;22.00;34.20
72576;DHT22;60613;48.658;2.328;2023-04-06T12:51:42;22.10;34.10
72576;DHT22;60613;48.658;2.328;2023-04-06T12:54:07;22.10;34.10
72576;DHT22;60613;48.658;2.328;2023-04-06T12:56:33;22.10;34.20
72576;DHT22;60613;48.658;2.328;2023-04-06T12:58:59;22.10;35.10
72576;DHT22;60613;48.658;2.328;2023-04-06T13:01:24;22.20;34.00
72576;DHT22;60613;48.658;2.328;2023-04-06T13:03:51;22.20;33.90
72576;DHT22;60613;48.658;2.328;2023-04-06T13:06:17;22.20;33.90
72576;DHT22;60613;48.658;2.328;2023-04-06T13:08:43;22.20;33.80
72576;DHT22;60613;48.658;2.328;2023-04-06T13:11:08;22.30;33.70
72576;DHT22;60613;48.658;2.328;2023-04-06T13:13:35;22.20;33.70
72576;DHT22;60613;48.658;2.328;2023-04-06T13:16:11;22.30;33.60
72576;DHT22;60613;48.658;2.328;2023-04-06T13:18:37;22.30;33.70
72576;DHT22;60613;48.658;2.328;2023-04-06T13:21:04;22.20;33.70
72576;DHT22;60613;48.658;2.328;2023-04-06T13:23:31;22.30;33.60
72576;DHT22;60613;48.658;2.328;2023-04-06T13:26:00;22.30;33.60
72576;DHT22;60613;48.658;2.328;2023-04-06T13:28:26;22.20;33.60
72576;DHT22;60613;48.658;2.328;2023-04-06T13:30:52;22.20;33.60
72576;DHT22;60613;48.658;2.328;2023-04-06T13:33:18;22.20;33.60
72576;DHT22;60613;48.658;2.328;2023-04-06T13:35:46;22.10;33.70
72576;DHT22;60613;48.658;2.328;2023-04-06T13:38:12;22.10;33.70
72576;DHT22;60613;48.658;2.328;2023-04-06T13:40:39;22.10;33.80
72576;DHT22;60613;48.658;2.328;2023-04-06T13:43:06;22.10;33.80
72576;DHT22;60613;48.658;2.328;2023-04-06T13:45:31;22.00;33.90
72576;DHT22;60613;48.658;2.328;2023-04-06T13:47:57;22.00;33.90
72576;DHT22;60613;48.658;2.328;2023-04-06T13:50:25;22.00;33.90
72576;DHT22;60613;48.658;2.328;2023-04-06T13:52:51;22.00;34.00
72576;DHT22;60613;48.658;2.328;2023-04-06T13:55:17;22.00;35.20
72576;DHT22;60613;48.658;2.328;2023-04-06T13:57:42;21.90;34.00
72576;DHT22;60613;48.658;2.328;2023-04-06T14:00:08;21.90;34.10
72576;DHT22;60613;48.658;2.328;2023-04-06T14:02:36;21.80;34.00
72576;DHT22;60613;48.658;2.328;2023-04-06T14:05:01;21.80;34.20
72576;DHT22;60613;48.658;2.328;2023-04-06T14:07:27;21.80;35.40
72576;DHT22;60613;48.658;2.328;2023-04-06T14:09:53;21.80;34.10
72576;DHT22;60613;48.658;2.328;2023-04-06T14:12:18;21.80;34.10
72576;DHT22;60613;48.658;2.328;2023-04-06T14:14:44;21.90;34.10
72576;DHT22;60613;48.658;2.328;2023-04-06T14:17:09;21.90;34.00
72576;DHT22;60613;48.658;2.328;2023-04-06T14:19:35;21.90;34.00
72576;DHT22;60613;48.658;2.328;2023-04-06T14:22:01;21.90;33.90
72576;DHT22;60613;48.658;2.328;2023-04-06T14:24:27;21.80;34.00
72576;DHT22;60613;48.658;2.328;2023-04-06T14:26:53;21.90;33.90
72576;DHT22;60613;48.658;2.328;2023-04-06T14:29:18;21.90;33.80
72576;DHT22;60613;48.658;2.328;2023-04-06T14:31:47;21.90;33.80
72576;DHT22;60613;48.658;2.328;2023-04-06T14:34:13;21.90;33.80
72576;DHT22;60613;48.658;2.328;2023-04-06T14:36:39;21.90;33.70
72576;DHT22;60613;48.658;2.328;2023-04-06T14:39:05;22.00;33.70
72576;DHT22;60613;48.658;2.328;2023-04-06T14:41:31;22.10;33.50
72576;DHT22;60613;48.658;2.328;2023-04-06T14:43:57;22.10;33.50
72576;DHT22;60613;48.658;2.328;2023-04-06T14:46:23;22.20;33.40
72576;DHT22;60613;48.658;2.328;2023-04-06T14:48:49;22.20;33.30
72576;DHT22;60613;48.658;2.328;2023-04-06T14:51:15;22.20;33.20
72576;DHT22;60613;48.658;2.328;2023-04-06T14:53:41;22.20;33.10
72576;DHT22;60613;48.658;2.328;2023-04-06T14:56:07;22.30;33.10
72576;DHT22;60613;48.658;2.328;2023-04-06T14:58:32;22.30;33.20
72576;DHT22;60613;48.658;2.328;2023-04-06T15:00:59;22.20;33.30
72576;DHT22;60613;48.658;2.328;2023-04-06T15:03:28;22.10;33.30
72576;DHT22;60613;48.658;2.328;2023-04-06T15:05:55;22.10;33.40
72576;DHT22;60613;48.658;2.328;2023-04-06T15:08:24;22.10;33.50
72576;DHT22;60613;48.658;2.328;2023-04-06T15:10:50;22.10;33.50
72576;DHT22;60613;48.658;2.328;2023-04-06T15:13:17;22.10;33.50
72576;DHT22;60613;48.658;2.328;2023-04-06T15:15:43;22.10;34.70
72576;DHT22;60613;48.658;2.328;2023-04-06T15:18:10;22.10;33.60
72576;DHT22;60613;48.658;2.328;2023-04-06T15:20:36;22.10;33.60
72576;DHT22;60613;48.658;2.328;2023-04-06T15:23:03;22.10;33.90
72576;DHT22;60613;48.658;2.328;2023-04-06T15:25:29;22.20;33.90
72576;DHT22;60613;48.658;2.328;2023-04-06T15:27:55;22.30;33.90
72576;DHT22;60613;48.658;2.328;2023-04-06T15:30:20;22.20;33.60
72576;DHT22;60613;48.658;2.328;2023-04-06T15:32:59;22.30;33.70
72576;DHT22;60613;48.658;2.328;2023-04-06T15:35:29;22.40;33.60
72576;DHT22;60613;48.658;2.328;2023-04-06T15:37:55;22.50;33.50
72576;DHT22;60613;48.658;2.328;2023-04-06T15:40:21;22.60;34.40
72576;DHT22;60613;48.658;2.328;2023-04-06T15:42:47;22.60;34.70
72576;DHT22;60613;48.658;2.328;2023-04-06T15:45:13;22.70;34.70
72576;DHT22;60613;48.658;2.328;2023-04-06T15:47:40;22.60;34.80
72576;DHT22;60613;48.658;2.328;2023-04-06T15:50:06;22.60;34.60
72576;DHT22;60613;48.658;2.328;2023-04-06T15:52:33;22.60;34.50
72576;DHT22;60613;48.658;2.328;2023-04-06T15:54:58;22.50;34.30
72576;DHT22;60613;48.658;2.328;2023-04-06T15:57:24;22.50;34.30
72576;DHT22;60613;48.658;2.328;2023-04-06T15:59:50;22.60;34.30
72576;DHT22;60613;48.658;2.328;2023-04-06T16:02:16;22.60;34.90
72576;DHT22;60613;48.658;2.328;2023-04-06T16:04:42;22.60;34.40
72576;DHT22;60613;48.658;2.328;2023-04-06T16:07:07;22.60;34.60
72576;DHT22;60613;48.658;2.328;2023-04-06T16:09:33;22.70;35.30
72576;DHT22;60613;48.658;2.328;2023-04-06T16:11:59;22.70;35.30
72576;DHT22;60613;48.658;2.328;2023-04-06T16:14:26;22.70;35.50
72576;DHT22;60613;48.658;2.328;2023-04-06T16:16:51;22.70;35.40
72576;DHT22;60613;48.658;2.328;2023-04-06T16:19:17;22.70;35.60
72576;DHT22;60613;48.658;2.328;2023-04-06T16:21:43;22.70;35.30
72576;DHT22;60613;48.658;2.328;2023-04-06T16:24:08;22.70;35.40
72576;DHT22;60613;48.658;2.328;2023-04-06T16:26:34;22.60;35.30
72576;DHT22;60613;48.658;2.328;2023-04-06T16:29:00;22.60;35.30
72576;DHT22;60613;48.658;2.328;2023-04-06T16:31:26;22.60;35.10
72576;DHT22;60613;48.658;2.328;2023-04-06T16:33:55;22.60;35.10
72576;DHT22;60613;48.658;2.328;2023-04-06T16:36:25;22.60;35.00
72576;DHT22;60613;48.658;2.328;2023-04-06T16:38:57;22.60;34.80
72576;DHT22;60613;48.658;2.328;2023-04-06T16:41:24;22.70;34.80
72576;DHT22;60613;48.658;2.328;2023-04-06T16:43:51;22.70;34.60
72576;DHT22;60613;48.658;2.328;2023-04-06T16:46:17;22.70;34.40
72576;DHT22;60613;48.658;2.328;2023-04-06T16:48:43;22.80;34.50
72576;DHT22;60613;48.658;2.328;2023-04-06T16:51:09;22.80;34.50
72576;DHT22;60613;48.658;2.328;2023-04-06T16:53:36;22.70;34.30
72576;DHT22;60613;48.658;2.328;2023-04-06T16:56:06;22.70;34.20
72576;DHT22;60613;48.658;2.328;2023-04-06T16:58:34;22.70;34.40
72576;DHT22;60613;48.658;2.328;2023-04-06T17:01:02;22.70;34.40
72576;DHT22;60613;48.658;2.328;2023-04-06T17:03:28;22.70;34.30
72576;DHT22;60613;48.658;2.328;2023-04-06T17:05:54;22.70;34.20
72576;DHT22;60613;48.658;2.328;2023-04-06T17:08:19;22.70;34.20
72576;DHT22;60613;48.658;2.328;2023-04-06T17:10:45;22.60;34.70
72576;DHT22;60613;48.658;2.328;2023-04-06T17:13:11;22.50;34.90
72576;DHT22;60613;48.658;2.328;2023-04-06T17:15:37;22.40;35.20
72576;DHT22;60613;48.658;2.328;2023-04-06T17:18:02;22.30;35.30
72576;DHT22;60613;48.658;2.328;2023-04-06T17:20:28;22.20;35.40
72576;DHT22;60613;48.658;2.328;2023-04-06T17:22:54;22.10;35.60
72576;DHT22;60613;48.658;2.328;2023-04-06T17:25:20;22.00;36.60
72576;DHT22;60613;48.658;2.328;2023-04-06T17:27:46;22.00;38.10
72576;DHT22;60613;48.658;2.328;2023-04-06T17:30:12;21.90;38.60
72576;DHT22;60613;48.658;2.328;2023-04-06T17:32:38;21.90;39.40
72576;DHT22;60613;48.658;2.328;2023-04-06T17:35:04;21.80;39.60
72576;DHT22;60613;48.658;2.328;2023-04-06T17:37:30;21.80;39.90
72576;DHT22;60613;48.658;2.328;2023-04-06T17:39:56;21.80;40.30
72576;DHT22;60613;48.658;2.328;2023-04-06T17:42:22;21.80;40.10
72576;DHT22;60613;48.658;2.328;2023-04-06T17:44:47;21.80;39.80
72576;DHT22;60613;48.658;2.328;2023-04-06T17:47:14;21.80;39.70
72576;DHT22;60613;48.658;2.328;2023-04-06T17:49:40;21.70;39.30
72576;DHT22;60613;48.658;2.328;2023-04-06T17:52:06;21.70;39.20
72576;DHT22;60613;48.658;2.328;2023-04-06T17:54:34;21.70;38.70
72576;DHT22;60613;48.658;2.328;2023-04-06T17:57:00;21.80;38.50
72576;DHT22;60613;48.658;2.328;2023-04-06T17:59:27;21.70;38.20
72576;DHT22;60613;48.658;2.328;2023-04-06T18:01:52;21.70;38.40
72576;DHT22;60613;48.658;2.328;2023-04-06T18:04:18;21.70;38.30
72576;DHT22;60613;48.658;2.328;2023-04-06T18:06:44;21.70;38.20
72576;DHT22;60613;48.658;2.328;2023-04-06T18:09:09;21.70;37.90
72576;DHT22;60613;48.658;2.328;2023-04-06T18:11:35;21.70;38.00
72576;DHT22;60613;48.658;2.328;2023-04-06T18:14:07;21.70;37.70
72576;DHT22;60613;48.658;2.328;2023-04-06T18:16:33;21.70;37.90
72576;DHT22;60613;48.658;2.328;2023-04-06T18:19:00;21.70;38.00
72576;DHT22;60613;48.658;2.328;2023-04-06T18:21:26;21.70;37.80
72576;DHT22;60613;48.658;2.328;2023-04-06T18:23:52;21.70;37.70
72576;DHT22;60613;48.658;2.328;2023-04-06T18:26:19;21.70;37.80
72576;DHT22;60613;48.658;2.328;2023-04-06T18:28:46;21.60;37.80
72576;DHT22;60613;48.658;2.328;2023-04-06T18:31:12;21.60;37.70
72576;DHT22;60613;48.658;2.328;2023-04-06T18:33:37;21.60;37.90
72576;DHT22;60613;48.658;2.328;2023-04-06T18:36:04;21.60;37.80
72576;DHT22;60613;48.658;2.328;2023-04-06T18:38:30;21.60;37.50
72576;DHT22;60613;48.658;2.328;2023-04-06T18:40:55;21.60;37.20
72576;DHT22;60613;48.658;2.328;2023-04-06T18:43:21;21.60;37.90
72576;DHT22;60613;48.658;2.328;2023-04-06T18:45:46;21.60;37.70
72576;DHT22;60613;48.658;2.328;2023-04-06T18:48:12;21.60;37.50
72576;DHT22;60613;48.658;2.328;2023-04-06T18:50:38;21.60;37.70
72576;DHT22;60613;48.658;2.328;2023-04-06T18:53:04;21.50;37.80
72576;DHT22;60613;48.658;2.328;2023-04-06T18:55:33;21.50;37.90
72576;DHT22;60613;48.658;2.328;2023-04-06T18:58:00;21.50;37.80
